PWSweather.com
Personal Weather Stations
Station Observations
KFLPOINC2
PoincianaKissimmee, Poinciana, FL 34758

PoincianaKissimmeePoinciana, FL 34758

Lat: 28.161417, Lon: -81.477557

Elevation: 62

Station Type: Ambient Weather WS 2080

High Low Average
Temperature 81.0°F27.2°C 59.7°F15.4°C 69.3°F20.7°C
Dew Point 62.6°F17.0°C 54.8°F12.7°C 58.4°F14.7°C
Winds 15.9 mph 25.6 kmh Calm Calm 4.0 mph SW6.4 kmh SW
Wind Gusts 22.1 mph35.6 kmh -- 6.0 mph9.7 kmh
Humidity 86% 50% 70%
Pressure 29.83 in1010.2 mb 29.60 in1002.4 mb -
Precipitation 0.28 in7.1 mm - -
Hour Temp Dew Point Humidity Winds Wind Gusts Pressure Precip Precip Rate Daily Precip Total
12:00 AM 62.1°F16.7°C 55.1°F12.8°C 78% 1.6 mph SW2.6 kmh SW 2.2 mph3.5 kmh 29.83 in1010.2 mb 0.00 in0.0 mm 0.00 in/hr0.0 mm/hr 0.00 in0.0 mm
12:15 AM 62.6°F17.0°C 55.7°F13.2°C 78% 3.1 mph S5.0 kmh S 5.4 mph8.7 kmh 29.82 in1009.8 mb 0.00 in0.0 mm 0.00 in/hr0.0 mm/hr 0.00 in0.0 mm
12:30 AM 62.6°F17.0°C 55.7°F13.2°C 78% 3.1 mph S5.0 kmh S 5.4 mph8.7 kmh 29.82 in1009.8 mb 0.00 in0.0 mm 0.00 in/hr0.0 mm/hr 0.00 in0.0 mm
12:45 AM 62.8°F17.1°C 55.1°F12.8°C 76% 0.7 mph NW1.1 kmh NW 1.6 mph2.6 kmh 29.82 in1009.8 mb 0.00 in0.0 mm 0.00 in/hr0.0 mm/hr 0.00 in0.0 mm
01:00 AM 62.1°F16.7°C 55.1°F12.8°C 78% 2.2 mph WNW3.5 kmh WNW 3.1 mph5.0 kmh 29.82 in1009.8 mb 0.00 in0.0 mm 0.00 in/hr0.0 mm/hr 0.00 in0.0 mm
01:15 AM 61.7°F16.5°C 55.1°F12.8°C 79% 0.7 mph WSW1.1 kmh WSW 3.1 mph5.0 kmh 29.81 in1009.5 mb 0.00 in0.0 mm 0.00 in/hr0.0 mm/hr 0.00 in0.0 mm
01:30 AM 61.2°F16.2°C 55.0°F12.8°C 80% 2.2 mph W3.5 kmh W 3.1 mph5.0 kmh 29.81 in1009.5 mb 0.00 in0.0 mm 0.00 in/hr0.0 mm/hr 0.00 in0.0 mm
01:45 AM 61.2°F16.2°C 55.0°F12.8°C 80% Calm Calm 0.7 mph1.1 kmh 29.79 in1008.8 mb 0.00 in0.0 mm 0.00 in/hr0.0 mm/hr 0.00 in0.0 mm
02:00 AM 61.0°F16.1°C 54.8°F12.7°C 80% 0.7 mph SW1.1 kmh SW 1.6 mph2.6 kmh 29.79 in1008.8 mb 0.00 in0.0 mm 0.00 in/hr0.0 mm/hr 0.00 in0.0 mm
07:14 AM 60.8°F16.0°C 55.9°F13.3°C 84% Calm Calm -- 29.79 in1008.8 mb 0.00 in0.0 mm 0.00 in/hr0.0 mm/hr 0.00 in0.0 mm
07:15 AM 60.8°F16.0°C 55.9°F13.3°C 84% Calm Calm -- 29.79 in1008.8 mb 0.00 in0.0 mm 0.00 in/hr0.0 mm/hr 0.00 in0.0 mm
07:30 AM 61.3°F16.3°C 56.5°F13.6°C 84% 0.7 mph E1.1 kmh E 1.6 mph2.6 kmh 29.80 in1009.1 mb 0.00 in0.0 mm 0.00 in/hr0.0 mm/hr 0.00 in0.0 mm
07:45 AM 62.4°F16.9°C 57.2°F14.0°C 83% 1.6 mph E2.6 kmh E 2.2 mph3.5 kmh 29.80 in1009.1 mb 0.00 in0.0 mm 0.00 in/hr0.0 mm/hr 0.00 in0.0 mm
08:00 AM 63.7°F17.6°C 57.8°F14.3°C 81% Calm Calm 1.6 mph2.6 kmh 29.80 in1009.1 mb 0.00 in0.0 mm 0.00 in/hr0.0 mm/hr 0.00 in0.0 mm
08:15 AM 65.3°F18.5°C 59.7°F15.4°C 82% 0.7 mph SE1.1 kmh SE 1.6 mph2.6 kmh 29.81 in1009.5 mb 0.00 in0.0 mm 0.00 in/hr0.0 mm/hr 0.00 in0.0 mm
08:30 AM 66.7°F19.3°C 59.0°F15.0°C 76% 1.6 mph WNW2.6 kmh WNW 3.1 mph5.0 kmh 29.81 in1009.5 mb 0.00 in0.0 mm 0.00 in/hr0.0 mm/hr 0.00 in0.0 mm
08:45 AM 67.6°F19.8°C 59.1°F15.1°C 74% 4.5 mph NW7.2 kmh NW 6.9 mph11.1 kmh 29.81 in1009.5 mb 0.00 in0.0 mm 0.00 in/hr0.0 mm/hr 0.00 in0.0 mm
09:00 AM 69.1°F20.6°C 59.3°F15.2°C 71% 5.4 mph WSW8.7 kmh WSW 6.9 mph11.1 kmh 29.81 in1009.5 mb 0.00 in0.0 mm 0.00 in/hr0.0 mm/hr 0.00 in0.0 mm
09:15 AM 70.0°F21.1°C 58.5°F14.7°C 67% 3.8 mph W6.1 kmh W 7.6 mph12.2 kmh 29.80 in1009.1 mb 0.00 in0.0 mm 0.00 in/hr0.0 mm/hr 0.00 in0.0 mm
09:30 AM 71.4°F21.9°C 58.6°F14.8°C 64% 6.0 mph W9.7 kmh W 11.4 mph18.3 kmh 29.80 in1009.1 mb 0.00 in0.0 mm 0.00 in/hr0.0 mm/hr 0.00 in0.0 mm
12:07 PM 71.8°F22.1°C 58.5°F14.7°C 63% 7.6 mph W12.2 kmh W 9.2 mph14.8 kmh 29.80 in1009.1 mb 0.00 in0.0 mm 0.00 in/hr0.0 mm/hr 0.00 in0.0 mm
12:08 PM 76.6°F24.8°C 60.8°F16.0°C 58% 7.6 mph W12.2 kmh W 9.8 mph15.8 kmh 29.75 in1007.5 mb 0.00 in0.0 mm 0.00 in/hr0.0 mm/hr 0.00 in0.0 mm
12:15 PM 77.4°F25.2°C 60.0°F15.6°C 55% 8.3 mph WNW13.4 kmh WNW 12.1 mph19.5 kmh 29.75 in1007.5 mb 0.00 in0.0 mm 0.00 in/hr0.0 mm/hr 0.00 in0.0 mm
12:30 PM 77.4°F25.2°C 60.5°F15.8°C 56% 6.9 mph NW11.1 kmh NW 13.6 mph21.9 kmh 29.74 in1007.1 mb 0.00 in0.0 mm 0.00 in/hr0.0 mm/hr 0.00 in0.0 mm
12:45 PM 77.9°F25.5°C 60.5°F15.8°C 55% 3.1 mph NW5.0 kmh NW 10.7 mph17.2 kmh 29.73 in1006.8 mb 0.00 in0.0 mm 0.00 in/hr0.0 mm/hr 0.00 in0.0 mm
01:00 PM 77.9°F25.5°C 60.5°F15.8°C 55% 3.1 mph NW5.0 kmh NW 10.7 mph17.2 kmh 29.73 in1006.8 mb 0.00 in0.0 mm 0.00 in/hr0.0 mm/hr 0.00 in0.0 mm
05:31 PM 77.4°F25.2°C 60.9°F16.1°C 57% 3.8 mph NW6.1 kmh NW 6.0 mph9.7 kmh 29.71 in1006.1 mb 0.00 in0.0 mm 0.00 in/hr0.0 mm/hr 0.00 in0.0 mm
05:45 PM 78.1°F25.6°C 61.1°F16.2°C 56% 5.4 mph NW8.7 kmh NW 12.1 mph19.5 kmh 29.61 in1002.7 mb 0.00 in0.0 mm 0.00 in/hr0.0 mm/hr 0.00 in0.0 mm
06:00 PM 78.1°F25.6°C 61.1°F16.2°C 56% 5.4 mph NW8.7 kmh NW 13.6 mph21.9 kmh 29.64 in1003.7 mb 0.00 in0.0 mm 0.00 in/hr0.0 mm/hr 0.00 in0.0 mm
06:15 PM 76.1°F24.5°C 62.6°F17.0°C 63% 15.9 mph N25.6 kmh N 22.1 mph35.6 kmh 29.68 in1005.1 mb 0.02 in0.5 mm 0.08 in/hr2.0 mm/hr 0.02 in0.5 mm
06:30 PM 67.8°F19.9°C 62.5°F16.9°C 83% 5.4 mph N8.7 kmh N 21.3 mph34.3 kmh 29.69 in1005.4 mb 0.28 in7.1 mm 1.04 in/hr26.4 mm/hr 0.28 in7.1 mm
06:45 PM 67.1°F19.5°C 62.8°F17.1°C 86% 2.2 mph N3.5 kmh N 6.9 mph11.1 kmh 29.68 in1005.1 mb 0.29 in7.4 mm 0.04 in/hr1.0 mm/hr 0.30 in7.6 mm
07:00 PM 66.9°F19.4°C 63.3°F17.4°C 88% 2.2 mph NE3.5 kmh NE 6.0 mph9.7 kmh 29.67 in1004.7 mb 0.29 in7.4 mm 0.00 in/hr0.0 mm/hr 0.30 in7.6 mm
07:15 PM 66.7°F19.3°C 63.4°F17.4°C 89% 5.4 mph SW8.7 kmh SW 6.9 mph11.1 kmh 29.66 in1004.4 mb 0.18 in4.6 mm 0.00 in/hr0.0 mm/hr 0.30 in7.6 mm
07:30 PM 66.4°F19.1°C 63.1°F17.3°C 89% 3.1 mph WSW5.0 kmh WSW 7.6 mph12.2 kmh 29.66 in1004.4 mb 0.00 in0.0 mm 0.00 in/hr0.0 mm/hr 0.30 in7.6 mm
07:45 PM 66.2°F19.0°C 62.9°F17.2°C 89% 3.1 mph NW5.0 kmh NW 4.5 mph7.2 kmh 29.68 in1005.1 mb 0.00 in0.0 mm 0.00 in/hr0.0 mm/hr 0.30 in7.6 mm
08:00 PM 66.2°F19.0°C 62.9°F17.2°C 89% 0.7 mph NNW1.1 kmh NNW 3.8 mph6.1 kmh 29.68 in1005.1 mb 0.00 in0.0 mm 0.00 in/hr0.0 mm/hr 0.30 in7.6 mm
08:15 PM 66.2°F19.0°C 62.6°F17.0°C 88% 0.7 mph NNW1.1 kmh NNW 3.8 mph6.1 kmh 29.69 in1005.4 mb 0.00 in0.0 mm 0.00 in/hr0.0 mm/hr 0.30 in7.6 mm
08:30 PM 66.2°F19.0°C 62.6°F17.0°C 88% Calm Calm 3.1 mph5.0 kmh 29.69 in1005.4 mb 0.00 in0.0 mm 0.00 in/hr0.0 mm/hr 0.30 in7.6 mm
08:45 PM 66.0°F18.9°C 62.7°F17.1°C 89% Calm Calm 2.2 mph3.5 kmh 29.68 in1005.1 mb 0.00 in0.0 mm 0.00 in/hr0.0 mm/hr 0.30 in7.6 mm
09:00 PM 66.0°F18.9°C 62.4°F16.9°C 88% 0.7 mph WSW1.1 kmh WSW 1.6 mph2.6 kmh 29.68 in1005.1 mb 0.00 in0.0 mm 0.00 in/hr0.0 mm/hr 0.30 in7.6 mm
09:15 PM 66.0°F18.9°C 62.4°F16.9°C 88% 0.7 mph SW1.1 kmh SW 3.1 mph5.0 kmh 29.68 in1005.1 mb 0.00 in0.0 mm 0.00 in/hr0.0 mm/hr 0.30 in7.6 mm
09:30 PM 66.0°F18.9°C 62.7°F17.1°C 89% 0.7 mph SW1.1 kmh SW 3.1 mph5.0 kmh 29.68 in1005.1 mb 0.00 in0.0 mm 0.00 in/hr0.0 mm/hr 0.30 in7.6 mm
09:45 PM 65.8°F18.8°C 62.5°F16.9°C 89% 2.2 mph SW3.5 kmh SW 3.8 mph6.1 kmh 29.67 in1004.7 mb 0.00 in0.0 mm 0.00 in/hr0.0 mm/hr 0.30 in7.6 mm
10:00 PM 66.0°F18.9°C 62.7°F17.1°C 89% Calm Calm 1.6 mph2.6 kmh 29.68 in1005.1 mb 0.00 in0.0 mm 0.00 in/hr0.0 mm/hr 0.30 in7.6 mm
10:15 PM 66.0°F18.9°C 62.7°F17.1°C 89% Calm Calm 0.7 mph1.1 kmh 29.68 in1005.1 mb 0.00 in0.0 mm 0.00 in/hr0.0 mm/hr 0.30 in7.6 mm
10:30 PM 66.0°F18.9°C 62.7°F17.1°C 89% Calm Calm 0.7 mph1.1 kmh 29.68 in1005.1 mb 0.00 in0.0 mm 0.00 in/hr0.0 mm/hr 0.30 in7.6 mm
10:45 PM 66.0°F18.9°C 62.7°F17.1°C 89% Calm Calm 0.7 mph1.1 kmh 29.68 in1005.1 mb 0.00 in0.0 mm 0.00 in/hr0.0 mm/hr 0.30 in7.6 mm
11:00 PM 66.0°F18.9°C 62.7°F17.1°C 89% Calm Calm 0.7 mph1.1 kmh 29.68 in1005.1 mb 0.00 in0.0 mm 0.00 in/hr0.0 mm/hr 0.30 in7.6 mm
11:15 PM 66.0°F18.9°C 62.7°F17.1°C 89% Calm Calm 0.7 mph1.1 kmh 29.68 in1005.1 mb 0.00 in0.0 mm 0.00 in/hr0.0 mm/hr 0.30 in7.6 mm
11:30 PM 66.0°F18.9°C 62.7°F17.1°C 89% Calm Calm 0.7 mph1.1 kmh 29.68 in1005.1 mb 0.00 in0.0 mm 0.00 in/hr0.0 mm/hr 0.30 in7.6 mm
11:45 PM 66.0°F18.9°C 62.7°F17.1°C 89% Calm Calm 0.7 mph1.1 kmh 29.68 in1005.1 mb 0.00 in0.0 mm 0.00 in/hr0.0 mm/hr 0.30 in7.6 mm